createdAt,value
2019-04-01T00:01:38.450Z,99.90
2019-04-01T00:04:36.335Z,99.90
2019-04-01T00:07:37.708Z,99.90
2019-04-01T00:10:32.177Z,99.90
2019-04-01T00:13:42.520Z,99.90
2019-04-01T00:16:36.125Z,99.90
2019-04-01T00:19:29.088Z,99.90
2019-04-01T00:22:33.808Z,99.90
2019-04-01T00:25:33.109Z,99.90
2019-04-01T00:28:26.120Z,99.90
2019-04-01T00:31:19.225Z,99.90
2019-04-01T00:34:33.389Z,99.90
2019-04-01T00:37:27.458Z,99.90
2019-04-01T00:40:21.531Z,99.90
2019-04-01T00:43:40.083Z,99.90
2019-04-01T00:46:30.915Z,99.90
2019-04-01T00:49:32.268Z,99.90
2019-04-01T00:52:22.943Z,99.90
2019-04-01T00:55:13.868Z,99.90
2019-04-01T00:58:14.997Z,99.90
2019-04-01T01:01:04.449Z,99.90
2019-04-01T01:03:54.576Z,99.90
2019-04-01T01:06:44.637Z,99.90
2019-04-01T01:09:38.934Z,99.90
2019-04-01T01:12:33.650Z,99.90
2019-04-01T01:15:24.386Z,99.90
2019-04-01T01:18:26.008Z,99.90
2019-04-01T01:21:37.451Z,99.90
2019-04-01T01:24:26.035Z,99.90
2019-04-01T01:27:21.255Z,99.90
2019-04-01T01:30:17.061Z,99.90
2019-04-01T01:33:10.528Z,99.90
2019-04-01T01:36:00.149Z,99.90
2019-04-01T01:38:51.008Z,99.90
2019-04-01T01:41:51.047Z,99.90
2019-04-01T01:44:48.182Z,99.90
2019-04-01T01:47:39.105Z,99.90
2019-04-01T01:50:59.184Z,99.90
2019-04-01T01:53:50.047Z,99.90
2019-04-01T01:56:51.649Z,99.90
2019-04-01T01:59:39.808Z,99.90
2019-04-01T02:02:29.570Z,99.90
2019-04-01T02:05:24.979Z,99.90
2019-04-01T02:08:17.403Z,99.90
2019-04-01T02:11:05.689Z,99.90
2019-04-01T02:13:58.611Z,99.90
2019-04-01T02:16:49.633Z,99.90
2019-04-01T02:20:01.456Z,99.90
2019-04-01T02:22:57.573Z,99.90
2019-04-01T02:25:50.228Z,99.90
2019-04-01T02:28:38.838Z,99.90
2019-04-01T02:31:31.408Z,99.90
2019-04-01T02:34:28.889Z,99.90
2019-04-01T02:37:25.726Z,99.90
2019-04-01T02:40:31.065Z,99.90
2019-04-01T02:43:22.873Z,99.90
2019-04-01T02:46:18.453Z,99.90
2019-04-01T02:49:23.358Z,99.90
2019-04-01T02:52:11.663Z,99.90
2019-04-01T02:55:06.381Z,99.90
2019-04-01T02:58:01.713Z,99.90
2019-04-01T03:00:53.484Z,99.90
2019-04-01T03:03:43.820Z,99.90
2019-04-01T03:06:32.531Z,99.90
2019-04-01T03:09:20.433Z,99.90
2019-04-01T03:12:10.889Z,99.90
2019-04-01T03:15:04.660Z,99.90
2019-04-01T03:17:57.926Z,99.90
2019-04-01T03:20:45.452Z,99.90
2019-04-01T03:24:01.219Z,99.90
2019-04-01T03:26:48.681Z,99.90
2019-04-01T03:29:55.274Z,99.90
2019-04-01T03:32:51.633Z,99.90
2019-04-01T03:35:45.003Z,99.90
2019-04-01T03:38:35.383Z,99.90
2019-04-01T03:41:58.329Z,99.90
2019-04-01T03:44:49.544Z,99.90
2019-04-01T03:47:56.817Z,99.90
2019-04-01T03:50:48.489Z,99.90
2019-04-01T03:57:47.189Z,99.90
2019-04-01T04:00:38.316Z,99.90
2019-04-01T04:03:37.423Z,99.90
2019-04-01T04:10:17.439Z,99.90
2019-04-01T04:13:21.275Z,99.90
2019-04-01T04:16:03.603Z,99.90
2019-04-01T04:18:51.926Z,99.90
2019-04-01T04:22:05.574Z,99.90
2019-04-01T04:25:01.034Z,99.90
2019-04-01T04:27:57.347Z,99.90
2019-04-01T04:30:51.645Z,99.90
2019-04-01T04:38:09.876Z,99.90
2019-04-01T04:45:53.138Z,99.90
2019-04-01T04:53:33.017Z,99.90
2019-04-01T04:56:44.857Z,99.90
2019-04-01T05:08:26.245Z,99.90
2019-04-01T05:15:54.965Z,99.90
2019-04-01T05:22:49.493Z,99.90
2019-04-01T05:26:33.211Z,99.90
2019-04-01T05:30:18.216Z,99.90
2019-04-01T05:33:18.838Z,99.90
2019-04-01T05:36:49.447Z,99.90
2019-04-01T05:39:41.274Z,99.90
2019-04-01T05:42:29.640Z,99.90
2019-04-01T05:45:33.198Z,99.90
2019-04-01T05:48:21.641Z,99.90
2019-04-01T05:51:11.969Z,99.90
2019-04-01T05:53:59.833Z,99.90
2019-04-01T05:56:51.130Z,99.90
2019-04-01T05:59:45.309Z,99.90
2019-04-01T06:02:34.951Z,99.90
2019-04-01T06:05:36.295Z,99.90
2019-04-01T06:08:27.472Z,99.90
2019-04-01T06:11:18.631Z,99.90
2019-04-01T06:14:06.703Z,99.90
2019-04-01T06:16:54.612Z,99.90
2019-04-01T06:19:52.816Z,99.90
2019-04-01T06:22:40.349Z,99.90
2019-04-01T06:25:37.611Z,99.90
2019-04-01T06:28:25.608Z,99.90
2019-04-01T06:31:14.789Z,99.90
2019-04-01T06:34:03.562Z,99.90
2019-04-01T06:36:51.851Z,99.90
2019-04-01T06:39:39.786Z,99.90
2019-04-01T06:42:27.420Z,99.90
2019-04-01T06:45:18.972Z,99.90
2019-04-01T06:48:25.039Z,99.90
2019-04-01T06:51:39.187Z,99.90
2019-04-01T06:54:30.114Z,99.90
2019-04-01T06:57:33.623Z,99.90
2019-04-01T07:00:21.636Z,99.90
2019-04-01T07:03:11.359Z,99.90
2019-04-01T07:06:03.627Z,99.90
2019-04-01T07:09:15.387Z,99.90
2019-04-01T07:12:03.682Z,99.90
2019-04-01T07:14:59.133Z,99.90
2019-04-01T07:17:48.818Z,99.90
2019-04-01T07:20:47.156Z,99.90
2019-04-01T07:26:34.099Z,99.90
2019-04-01T07:29:28.546Z,99.90
2019-04-01T07:32:47.832Z,99.90
2019-04-01T07:35:39.789Z,99.90
2019-04-01T07:38:27.391Z,99.90
2019-04-01T07:41:33.608Z,99.90
2019-04-01T07:44:21.847Z,99.90
2019-04-01T07:47:09.998Z,99.90
2019-04-01T07:50:05.703Z,99.90
2019-04-01T07:53:04.502Z,99.90
2019-04-01T07:56:02.377Z,99.90
2019-04-01T07:58:48.109Z,99.90
2019-04-01T08:02:09.969Z,99.90
2019-04-01T08:04:58.553Z,99.90
2019-04-01T08:07:47.626Z,99.90
2019-04-01T08:10:35.970Z,99.90
2019-04-01T08:13:29.700Z,99.90
2019-04-01T08:16:17.663Z,99.90
2019-04-01T08:19:05.780Z,99.90
2019-04-01T08:21:54.437Z,99.90
2019-04-01T08:29:29.978Z,99.90
2019-04-01T08:36:53.273Z,99.90
2019-04-01T08:58:54.456Z,99.90
2019-04-01T09:02:18.585Z,99.90
2019-04-01T09:05:44.072Z,99.90
2019-04-01T09:09:18.277Z,99.90
2019-04-01T09:16:21.521Z,99.90
2019-04-01T09:28:04.536Z,99.90
2019-04-01T09:35:50.815Z,99.90
2019-04-01T09:42:33.451Z,99.90
2019-04-01T09:53:32.702Z,99.90
2019-04-01T10:12:10.300Z,99.90
2019-04-01T10:22:43.085Z,99.90
2019-04-01T10:26:16.178Z,99.90
2019-04-01T10:37:53.330Z,99.90
2019-04-01T10:41:19.218Z,99.90
2019-04-01T10:43:58.481Z,99.90
2019-04-01T10:51:18.381Z,99.90
2019-04-01T10:54:49.104Z,99.90
2019-04-01T11:02:24.103Z,99.90
2019-04-01T11:06:07.695Z,99.90
2019-04-01T11:20:45.507Z,98.30
2019-04-01T11:24:07.769Z,99.10
2019-04-01T11:34:48.168Z,97.20
2019-04-01T11:42:40.395Z,95.10
2019-04-01T11:54:18.096Z,98.90
2019-04-01T11:57:49.442Z,96.80
2019-04-01T12:01:13.115Z,97.10
2019-04-01T12:04:49.482Z,94.70
2019-04-01T12:08:11.566Z,95.20
2019-04-01T12:11:02.152Z,93.60
2019-04-01T12:13:56.924Z,93.40
2019-04-01T12:16:44.665Z,94.40
2019-04-01T12:19:41.838Z,93.40
2019-04-01T12:22:29.619Z,96.10
2019-04-01T12:25:25.521Z,95.00
2019-04-01T12:28:10.260Z,93.80
2019-04-01T12:59:04.288Z,81.70
2019-04-01T13:06:48.593Z,78.60
2019-04-01T13:10:23.209Z,80.70
2019-04-01T13:14:04.626Z,75.80
2019-04-01T13:16:52.716Z,74.60
2019-04-01T13:21:11.462Z,72.10
2019-04-01T13:24:22.813Z,70.30
2019-04-01T13:28:18.616Z,72.20
2019-04-01T13:51:48.265Z,61.30
2019-04-01T13:59:03.285Z,62.40
2019-04-01T14:02:03.467Z,61.50
2019-04-01T14:06:08.365Z,63.20
2019-04-01T14:13:50.288Z,60.30
2019-04-01T14:16:41.242Z,58.70
2019-04-01T14:19:38.091Z,62.20
2019-04-01T14:22:26.141Z,63.60
2019-04-01T14:25:15.577Z,64.70
2019-04-01T14:28:18.890Z,65.30
2019-04-01T14:31:07.182Z,63.90
2019-04-01T14:33:55.631Z,65.70
2019-04-01T14:36:43.644Z,66.80
2019-04-01T14:39:47.696Z,63.90
2019-04-01T14:42:31.374Z,61.80
2019-04-01T14:45:26.657Z,59.70
2019-04-01T14:48:34.067Z,60.50
2019-04-01T14:51:37.327Z,62.20
2019-04-01T14:54:24.722Z,63.10
2019-04-01T14:57:18.843Z,62.40
2019-04-01T15:00:03.735Z,64.20
2019-04-01T15:03:11.679Z,64.60
2019-04-01T15:05:59.255Z,66.50
2019-04-01T15:08:48.231Z,67.60
2019-04-01T15:11:36.344Z,68.80
2019-04-01T15:14:23.798Z,69.30
2019-04-01T15:17:12.018Z,71.00
2019-04-01T15:20:00.183Z,68.10
2019-04-01T15:22:48.166Z,67.80
2019-04-01T15:25:36.421Z,68.30
2019-04-01T15:28:31.459Z,66.30
2019-04-01T15:31:22.122Z,68.30
2019-04-01T15:34:10.238Z,67.80
2019-04-01T15:37:05.903Z,67.30
2019-04-01T15:39:53.996Z,68.60
2019-04-01T15:42:43.088Z,70.00
2019-04-01T15:45:31.480Z,68.10
2019-04-01T15:48:27.773Z,67.20
2019-04-01T15:51:37.206Z,69.30
2019-04-01T15:54:12.506Z,71.60
2019-04-01T15:56:59.971Z,72.90
2019-04-01T15:59:47.817Z,75.70
2019-04-01T16:02:35.173Z,74.70
2019-04-01T16:05:30.781Z,75.70
2019-04-01T16:08:37.945Z,77.20
2019-04-01T16:11:25.872Z,77.90
2019-04-01T16:14:34.342Z,81.50
2019-04-01T16:17:25.192Z,75.70
2019-04-01T16:20:13.702Z,72.20
2019-04-01T16:23:09.610Z,73.30
2019-04-01T16:25:59.422Z,73.90
2019-04-01T16:28:49.806Z,78.20
2019-04-01T16:31:37.936Z,80.70
2019-04-01T16:34:26.028Z,82.70
2019-04-01T16:40:10.411Z,83.20
2019-04-01T16:46:04.777Z,87.80
2019-04-01T16:48:58.199Z,89.90
2019-04-01T16:51:47.859Z,90.70
2019-04-01T16:54:35.107Z,90.10
2019-04-01T16:57:49.223Z,86.70
2019-04-01T17:00:48.801Z,86.20
2019-04-01T17:03:39.323Z,83.10
2019-04-01T17:06:33.120Z,80.40
2019-04-01T17:09:24.468Z,79.70
2019-04-01T17:12:28.148Z,79.10
2019-04-01T17:15:14.729Z,79.90
2019-04-01T17:18:19.181Z,83.00
2019-04-01T17:21:43.395Z,82.40
2019-04-01T17:24:11.762Z,84.40
2019-04-01T17:27:36.869Z,86.00
2019-04-01T17:30:34.274Z,86.70
2019-04-01T17:33:33.998Z,90.00
2019-04-01T17:36:46.247Z,90.90
2019-04-01T17:39:47.182Z,91.60
2019-04-01T17:42:47.093Z,93.60
2019-04-01T17:45:47.039Z,94.10
2019-04-01T17:48:56.119Z,96.90
2019-04-01T17:55:34.654Z,99.70
2019-04-01T17:58:46.846Z,99.90
2019-04-01T18:01:35.598Z,99.90
2019-04-01T18:04:29.080Z,99.90
2019-04-01T18:07:27.117Z,99.90
2019-04-01T18:10:14.645Z,99.90
2019-04-01T18:13:02.086Z,99.90
2019-04-01T18:15:49.377Z,99.90
2019-04-01T18:18:36.661Z,99.90
2019-04-01T18:21:23.837Z,99.90
2019-04-01T18:24:10.910Z,99.90
2019-04-01T18:26:58.739Z,99.90
2019-04-01T18:29:46.326Z,99.90
2019-04-01T18:32:33.737Z,99.90
2019-04-01T18:35:21.122Z,99.90
2019-04-01T18:38:08.525Z,99.90
2019-04-01T18:40:55.614Z,99.90
2019-04-01T18:43:42.703Z,99.90
2019-04-01T18:46:30.513Z,99.90
2019-04-01T18:49:17.901Z,99.90
2019-04-01T18:52:05.438Z,99.90
2019-04-01T18:54:53.325Z,99.90
2019-04-01T18:57:41.002Z,99.90
2019-04-01T19:00:28.740Z,99.90
2019-04-01T19:03:16.293Z,99.90
2019-04-01T19:06:03.775Z,99.90
2019-04-01T19:08:50.986Z,99.90
2019-04-01T19:11:38.620Z,99.90
2019-04-01T19:14:25.816Z,99.90
2019-04-01T19:17:14.423Z,99.90
2019-04-01T19:20:02.310Z,99.90
2019-04-01T19:23:05.463Z,99.90
2019-04-01T19:25:57.992Z,99.90
2019-04-01T19:28:47.029Z,99.90
2019-04-01T19:31:36.232Z,99.90
2019-04-01T19:34:24.311Z,99.90
2019-04-01T19:37:12.404Z,99.90
2019-04-01T19:40:00.334Z,99.90
2019-04-01T19:42:48.182Z,99.90
2019-04-01T19:45:36.317Z,99.90
2019-04-01T19:48:23.912Z,99.90
2019-04-01T19:51:11.440Z,99.90
2019-04-01T19:54:01.734Z,99.90
2019-04-01T19:56:49.592Z,99.90
2019-04-01T19:59:37.254Z,99.90
2019-04-01T20:02:24.781Z,99.90
2019-04-01T20:05:16.847Z,99.90
2019-04-01T20:08:14.073Z,99.90
2019-04-01T20:11:00.988Z,99.90
2019-04-01T20:13:48.996Z,99.90
2019-04-01T20:16:37.138Z,99.90
2019-04-01T20:19:24.584Z,99.90
2019-04-01T20:22:12.141Z,99.90
2019-04-01T20:24:59.926Z,99.90
2019-04-01T20:27:47.953Z,99.90
2019-04-01T20:30:35.516Z,99.90
2019-04-01T20:33:23.044Z,99.90
2019-04-01T20:36:10.866Z,99.90
2019-04-01T20:38:58.404Z,99.90
2019-04-01T20:41:45.913Z,99.90
2019-04-01T20:44:33.755Z,99.90
2019-04-01T20:47:21.544Z,99.90
2019-04-01T20:50:09.778Z,99.90
2019-04-01T20:52:57.720Z,99.90
2019-04-01T20:55:48.382Z,99.90
2019-04-01T20:58:34.960Z,99.90
2019-04-01T21:01:22.632Z,99.90
2019-04-01T21:04:10.381Z,99.90
2019-04-01T21:06:57.929Z,99.90
2019-04-01T21:09:45.768Z,99.90
2019-04-01T21:12:33.815Z,99.90
2019-04-01T21:15:21.474Z,99.90
2019-04-01T21:18:09.903Z,99.90
2019-04-01T21:20:57.778Z,99.90
2019-04-01T21:23:46.170Z,99.90
2019-04-01T21:26:33.972Z,99.90
2019-04-01T21:29:22.842Z,99.90
2019-04-01T21:32:11.040Z,99.90
2019-04-01T21:34:58.708Z,99.90
2019-04-01T21:37:46.512Z,99.90
2019-04-01T21:40:34.424Z,99.90
2019-04-01T21:43:22.292Z,99.90
2019-04-01T21:46:09.940Z,99.90
2019-04-01T21:48:57.405Z,99.90
2019-04-01T21:51:45.048Z,99.90
2019-04-01T21:54:32.405Z,99.90
2019-04-01T21:57:20.615Z,99.90
2019-04-01T22:00:10.013Z,99.90
2019-04-01T22:02:58.092Z,99.90
2019-04-01T22:05:45.983Z,99.90
2019-04-01T22:08:33.620Z,99.90
2019-04-01T22:11:21.162Z,99.90
2019-04-01T22:14:08.676Z,99.90
2019-04-01T22:16:56.203Z,99.90
2019-04-01T22:19:44.148Z,99.90
2019-04-01T22:22:32.179Z,99.90
2019-04-01T22:25:19.636Z,99.90
2019-04-01T22:28:07.196Z,99.90
2019-04-01T22:30:54.451Z,99.90
2019-04-01T22:33:42.113Z,99.90
2019-04-01T22:36:31.277Z,99.90
2019-04-01T22:39:26.876Z,99.90
2019-04-01T22:42:09.089Z,99.90
2019-04-01T22:44:56.805Z,99.90
2019-04-01T22:47:45.437Z,99.90
2019-04-01T22:50:33.813Z,99.90
2019-04-01T22:53:21.944Z,99.90
2019-04-01T22:56:09.354Z,99.90
2019-04-01T22:58:56.832Z,99.90
2019-04-01T23:01:45.034Z,99.90
2019-04-01T23:04:32.988Z,99.90
2019-04-01T23:07:20.727Z,99.90
2019-04-01T23:10:08.500Z,99.90
2019-04-01T23:12:56.307Z,99.90
2019-04-01T23:15:44.144Z,99.90
2019-04-01T23:18:32.267Z,99.90
2019-04-01T23:21:19.785Z,99.90
2019-04-01T23:24:07.661Z,99.90
2019-04-01T23:26:55.714Z,99.90
2019-04-01T23:29:43.390Z,99.90
2019-04-01T23:32:31.332Z,99.90
2019-04-01T23:35:18.802Z,99.90
2019-04-01T23:38:07.160Z,99.90
2019-04-01T23:40:54.830Z,99.90
2019-04-01T23:43:42.236Z,99.90
2019-04-01T23:46:30.200Z,99.90
2019-04-01T23:49:18.031Z,99.90
2019-04-01T23:52:05.920Z,99.90
2019-04-01T23:54:53.677Z,99.90
2019-04-01T23:57:42.044Z,99.90
